sensor_id;sensor_type;location;lat;lon;timestamp;pressure;altitude;pressure_sealevel;temperature;humidity
69153;BME280;56261;51.580;4.578;2023-04-30T00:02:11;102450.56;;;7.77;100.00
69153;BME280;56261;51.580;4.578;2023-04-30T00:04:36;102451.44;;;7.65;100.00
69153;BME280;56261;51.580;4.578;2023-04-30T00:07:02;102458.06;;;7.59;100.00
69153;BME280;56261;51.580;4.578;2023-04-30T00:09:28;102460.19;;;7.54;100.00
69153;BME280;56261;51.580;4.578;2023-04-30T00:11:53;102464.22;;;7.47;100.00
69153;BME280;56261;51.580;4.578;2023-04-30T00:14:19;102450.09;;;7.59;100.00
69153;BME280;56261;51.580;4.578;2023-04-30T00:16:44;102452.94;;;7.56;100.00
69153;BME280;56261;51.580;4.578;2023-04-30T00:19:10;102454.88;;;7.54;100.00
69153;BME280;56261;51.580;4.578;2023-04-30T00:21:35;102455.97;;;7.76;100.00
69153;BME280;56261;51.580;4.578;2023-04-30T00:24:01;102452.59;;;7.74;100.00
69153;BME280;56261;51.580;4.578;2023-04-30T00:26:26;102448.69;;;7.66;100.00
69153;BME280;56261;51.580;4.578;2023-04-30T00:28:52;102456.09;;;7.74;100.00
69153;BME280;56261;51.580;4.578;2023-04-30T00:31:17;102446.31;;;7.75;100.00
69153;BME280;56261;51.580;4.578;2023-04-30T00:33:42;102450.50;;;7.66;100.00
69153;BME280;56261;51.580;4.578;2023-04-30T00:36:08;102446.38;;;7.62;100.00
69153;BME280;56261;51.580;4.578;2023-04-30T00:38:33;102443.72;;;7.49;100.00
69153;BME280;56261;51.580;4.578;2023-04-30T00:40:59;102444.72;;;7.48;100.00
69153;BME280;56261;51.580;4.578;2023-04-30T00:43:27;102454.66;;;7.57;100.00
69153;BME280;56261;51.580;4.578;2023-04-30T00:45:53;102452.41;;;7.64;100.00
69153;BME280;56261;51.580;4.578;2023-04-30T00:48:18;102445.53;;;7.61;100.00
69153;BME280;56261;51.580;4.578;2023-04-30T00:50:44;102456.00;;;7.63;100.00
69153;BME280;56261;51.580;4.578;2023-04-30T00:53:12;102448.63;;;7.42;100.00
69153;BME280;56261;51.580;4.578;2023-04-30T00:55:39;102455.63;;;7.43;100.00
69153;BME280;56261;51.580;4.578;2023-04-30T00:58:06;102451.06;;;7.45;100.00
69153;BME280;56261;51.580;4.578;2023-04-30T01:00:32;102455.63;;;7.43;100.00
69153;BME280;56261;51.580;4.578;2023-04-30T01:02:58;102451.53;;;7.39;100.00
69153;BME280;56261;51.580;4.578;2023-04-30T01:05:23;102441.59;;;7.54;100.00
69153;BME280;56261;51.580;4.578;2023-04-30T01:07:50;102444.50;;;7.38;100.00
69153;BME280;56261;51.580;4.578;2023-04-30T01:10:15;102439.19;;;7.38;100.00
69153;BME280;56261;51.580;4.578;2023-04-30T01:13:22;102439.50;;;7.46;100.00
69153;BME280;56261;51.580;4.578;2023-04-30T01:15:58;102444.16;;;7.43;100.00
69153;BME280;56261;51.580;4.578;2023-04-30T01:18:27;102455.31;;;7.48;100.00
69153;BME280;56261;51.580;4.578;2023-04-30T01:21:01;102450.97;;;7.47;100.00
69153;BME280;56261;51.580;4.578;2023-04-30T01:29:40;102459.16;;;7.18;100.00
69153;BME280;56261;51.580;4.578;2023-04-30T01:32:09;102458.50;;;7.27;100.00
69153;BME280;56261;51.580;4.578;2023-04-30T01:34:35;102454.41;;;7.23;100.00
69153;BME280;56261;51.580;4.578;2023-04-30T01:37:13;102442.00;;;7.11;100.00
69153;BME280;56261;51.580;4.578;2023-04-30T01:51:18;102449.63;;;7.03;100.00
69153;BME280;56261;51.580;4.578;2023-04-30T01:53:45;102445.72;;;6.96;100.00
69153;BME280;56261;51.580;4.578;2023-04-30T01:56:20;102442.63;;;6.89;100.00
69153;BME280;56261;51.580;4.578;2023-04-30T01:58:48;102450.50;;;6.91;100.00
69153;BME280;56261;51.580;4.578;2023-04-30T02:01:31;102458.53;;;6.89;100.00
69153;BME280;56261;51.580;4.578;2023-04-30T02:03:57;102450.59;;;6.89;100.00
69153;BME280;56261;51.580;4.578;2023-04-30T02:06:24;102447.75;;;6.92;100.00
69153;BME280;56261;51.580;4.578;2023-04-30T02:08:54;102449.00;;;6.86;100.00
69153;BME280;56261;51.580;4.578;2023-04-30T02:11:20;102449.66;;;6.90;100.00
69153;BME280;56261;51.580;4.578;2023-04-30T02:13:48;102455.16;;;6.87;100.00
69153;BME280;56261;51.580;4.578;2023-04-30T02:16:13;102445.50;;;6.86;100.00
69153;BME280;56261;51.580;4.578;2023-04-30T02:18:39;102447.84;;;6.91;100.00
69153;BME280;56261;51.580;4.578;2023-04-30T02:21:04;102451.56;;;6.88;100.00
69153;BME280;56261;51.580;4.578;2023-04-30T02:23:30;102447.09;;;6.89;100.00
69153;BME280;56261;51.580;4.578;2023-04-30T02:25:55;102452.63;;;6.85;100.00
69153;BME280;56261;51.580;4.578;2023-04-30T02:28:20;102446.88;;;6.79;100.00
69153;BME280;56261;51.580;4.578;2023-04-30T02:30:46;102442.31;;;6.68;100.00
69153;BME280;56261;51.580;4.578;2023-04-30T02:33:14;102450.13;;;6.70;100.00
69153;BME280;56261;51.580;4.578;2023-04-30T02:35:40;102453.66;;;6.70;100.00
69153;BME280;56261;51.580;4.578;2023-04-30T02:38:05;102449.41;;;6.68;100.00
69153;BME280;56261;51.580;4.578;2023-04-30T02:40:31;102456.19;;;6.59;100.00
69153;BME280;56261;51.580;4.578;2023-04-30T02:42:56;102454.78;;;6.53;100.00
69153;BME280;56261;51.580;4.578;2023-04-30T02:45:21;102457.00;;;6.47;100.00
69153;BME280;56261;51.580;4.578;2023-04-30T02:47:47;102454.66;;;6.42;100.00
69153;BME280;56261;51.580;4.578;2023-04-30T02:50:13;102456.56;;;6.40;100.00
69153;BME280;56261;51.580;4.578;2023-04-30T02:52:38;102384.94;;;6.01;100.00
69153;BME280;56261;51.580;4.578;2023-04-30T02:55:04;102442.88;;;6.33;100.00
69153;BME280;56261;51.580;4.578;2023-04-30T02:57:30;102456.88;;;6.35;100.00
69153;BME280;56261;51.580;4.578;2023-04-30T02:59:55;102462.69;;;6.28;100.00
69153;BME280;56261;51.580;4.578;2023-04-30T03:02:21;102450.19;;;6.30;100.00
69153;BME280;56261;51.580;4.578;2023-04-30T03:04:48;102465.66;;;6.36;100.00
69153;BME280;56261;51.580;4.578;2023-04-30T03:07:13;102455.94;;;6.36;100.00
69153;BME280;56261;51.580;4.578;2023-04-30T03:09:39;102448.94;;;6.35;100.00
69153;BME280;56261;51.580;4.578;2023-04-30T03:12:04;102446.72;;;6.42;100.00
69153;BME280;56261;51.580;4.578;2023-04-30T03:14:30;102444.06;;;6.42;100.00
69153;BME280;56261;51.580;4.578;2023-04-30T03:16:55;102446.81;;;6.40;100.00
69153;BME280;56261;51.580;4.578;2023-04-30T03:19:24;102442.56;;;6.38;100.00
69153;BME280;56261;51.580;4.578;2023-04-30T03:21:53;102446.94;;;6.39;100.00
69153;BME280;56261;51.580;4.578;2023-04-30T03:24:18;102441.56;;;6.66;100.00
69153;BME280;56261;51.580;4.578;2023-04-30T03:26:45;102441.53;;;6.53;100.00
69153;BME280;56261;51.580;4.578;2023-04-30T03:29:10;102440.78;;;6.51;100.00
69153;BME280;56261;51.580;4.578;2023-04-30T03:31:35;102440.03;;;6.49;100.00
69153;BME280;56261;51.580;4.578;2023-04-30T03:34:01;102420.44;;;6.39;100.00
69153;BME280;56261;51.580;4.578;2023-04-30T03:36:26;102429.75;;;6.44;100.00
69153;BME280;56261;51.580;4.578;2023-04-30T03:38:51;102431.88;;;6.39;100.00
69153;BME280;56261;51.580;4.578;2023-04-30T03:41:17;102432.94;;;6.37;100.00
69153;BME280;56261;51.580;4.578;2023-04-30T03:43:43;102435.91;;;6.45;100.00
69153;BME280;56261;51.580;4.578;2023-04-30T03:46:08;102433.81;;;6.50;100.00
69153;BME280;56261;51.580;4.578;2023-04-30T03:48:33;102445.03;;;6.54;100.00
69153;BME280;56261;51.580;4.578;2023-04-30T03:50:59;102442.47;;;6.39;100.00
69153;BME280;56261;51.580;4.578;2023-04-30T03:53:24;102437.47;;;6.35;100.00
69153;BME280;56261;51.580;4.578;2023-04-30T03:55:51;102435.78;;;6.34;100.00
69153;BME280;56261;51.580;4.578;2023-04-30T03:58:17;102439.59;;;6.30;100.00
69153;BME280;56261;51.580;4.578;2023-04-30T04:00:42;102433.84;;;6.23;100.00
69153;BME280;56261;51.580;4.578;2023-04-30T04:03:10;102424.91;;;6.11;100.00
69153;BME280;56261;51.580;4.578;2023-04-30T04:05:36;102439.03;;;6.12;100.00
69153;BME280;56261;51.580;4.578;2023-04-30T04:08:01;102432.00;;;6.11;100.00
69153;BME280;56261;51.580;4.578;2023-04-30T04:10:27;102433.59;;;6.13;100.00
69153;BME280;56261;51.580;4.578;2023-04-30T04:12:52;102435.72;;;6.08;100.00
69153;BME280;56261;51.580;4.578;2023-04-30T04:15:18;102443.97;;;6.03;100.00
69153;BME280;56261;51.580;4.578;2023-04-30T04:17:43;102443.75;;;6.07;100.00
69153;BME280;56261;51.580;4.578;2023-04-30T04:20:09;102446.69;;;6.02;100.00
69153;BME280;56261;51.580;4.578;2023-04-30T04:22:34;102443.97;;;6.03;100.00
69153;BME280;56261;51.580;4.578;2023-04-30T04:25:00;102443.56;;;6.10;100.00
69153;BME280;56261;51.580;4.578;2023-04-30T04:27:25;102436.94;;;6.02;100.00
69153;BME280;56261;51.580;4.578;2023-04-30T04:29:51;102454.47;;;6.18;100.00
69153;BME280;56261;51.580;4.578;2023-04-30T04:32:16;102452.25;;;6.12;100.00
69153;BME280;56261;51.580;4.578;2023-04-30T04:34:42;102448.28;;;6.05;100.00
69153;BME280;56261;51.580;4.578;2023-04-30T04:37:07;102447.25;;;6.07;100.00
69153;BME280;56261;51.580;4.578;2023-04-30T04:39:34;102447.44;;;6.31;100.00
69153;BME280;56261;51.580;4.578;2023-04-30T04:42:00;102389.09;;;5.91;100.00
69153;BME280;56261;51.580;4.578;2023-04-30T04:44:26;102449.63;;;6.24;100.00
69153;BME280;56261;51.580;4.578;2023-04-30T04:46:52;102454.75;;;6.28;100.00
69153;BME280;56261;51.580;4.578;2023-04-30T04:49:18;102461.72;;;6.29;100.00
69153;BME280;56261;51.580;4.578;2023-04-30T04:51:43;102448.72;;;6.38;100.00
69153;BME280;56261;51.580;4.578;2023-04-30T04:54:09;102436.66;;;6.34;100.00
69153;BME280;56261;51.580;4.578;2023-04-30T04:56:34;102441.31;;;6.43;100.00
69153;BME280;56261;51.580;4.578;2023-04-30T04:59:00;102448.00;;;6.49;100.00
69153;BME280;56261;51.580;4.578;2023-04-30T05:01:25;102447.19;;;6.61;100.00
69153;BME280;56261;51.580;4.578;2023-04-30T05:03:51;102451.09;;;6.69;100.00
69153;BME280;56261;51.580;4.578;2023-04-30T05:06:18;102451.84;;;6.71;100.00
69153;BME280;56261;51.580;4.578;2023-04-30T05:08:43;102451.09;;;6.69;100.00
69153;BME280;56261;51.580;4.578;2023-04-30T05:11:09;102442.84;;;6.73;100.00
69153;BME280;56261;51.580;4.578;2023-04-30T05:13:35;102459.09;;;6.81;100.00
69153;BME280;56261;51.580;4.578;2023-04-30T05:16:00;102441.25;;;6.83;100.00
69153;BME280;56261;51.580;4.578;2023-04-30T05:18:25;102437.75;;;6.83;100.00
69153;BME280;56261;51.580;4.578;2023-04-30T05:20:51;102438.06;;;6.91;100.00
69153;BME280;56261;51.580;4.578;2023-04-30T05:23:16;102442.53;;;6.91;100.00
69153;BME280;56261;51.580;4.578;2023-04-30T05:25:42;102432.13;;;7.00;100.00
69153;BME280;56261;51.580;4.578;2023-04-30T05:28:07;102438.69;;;7.07;100.00
69153;BME280;56261;51.580;4.578;2023-04-30T05:30:33;102443.38;;;7.17;100.00
69153;BME280;56261;51.580;4.578;2023-04-30T05:32:58;102439.84;;;7.29;100.00
69153;BME280;56261;51.580;4.578;2023-04-30T05:35:24;102452.25;;;7.41;100.00
69153;BME280;56261;51.580;4.578;2023-04-30T05:37:49;102454.91;;;7.41;100.00
69153;BME280;56261;51.580;4.578;2023-04-30T05:40:15;102459.66;;;7.49;100.00
69153;BME280;56261;51.580;4.578;2023-04-30T05:42:41;102456.97;;;7.62;100.00
69153;BME280;56261;51.580;4.578;2023-04-30T05:45:11;102464.38;;;7.69;100.00
69153;BME280;56261;51.580;4.578;2023-04-30T05:47:38;102463.53;;;7.69;100.00
69153;BME280;56261;51.580;4.578;2023-04-30T05:50:04;102460.09;;;7.93;100.00
69153;BME280;56261;51.580;4.578;2023-04-30T05:52:30;102462.91;;;8.02;100.00
69153;BME280;56261;51.580;4.578;2023-04-30T05:54:57;102467.69;;;8.21;100.00
69153;BME280;56261;51.580;4.578;2023-04-30T05:57:22;102465.94;;;8.33;100.00
69153;BME280;56261;51.580;4.578;2023-04-30T05:59:48;102459.31;;;8.39;100.00
69153;BME280;56261;51.580;4.578;2023-04-30T06:02:13;102463.03;;;8.60;100.00
69153;BME280;56261;51.580;4.578;2023-04-30T06:04:39;102458.72;;;8.82;100.00
69153;BME280;56261;51.580;4.578;2023-04-30T06:07:04;102444.47;;;9.39;100.00
69153;BME280;56261;51.580;4.578;2023-04-30T06:09:30;102448.88;;;9.95;100.00
69153;BME280;56261;51.580;4.578;2023-04-30T06:11:55;102452.50;;;9.94;100.00
69153;BME280;56261;51.580;4.578;2023-04-30T06:14:21;102453.75;;;9.79;100.00
69153;BME280;56261;51.580;4.578;2023-04-30T06:16:49;102459.63;;;9.93;100.00
69153;BME280;56261;51.580;4.578;2023-04-30T06:19:15;102448.38;;;10.01;100.00
69153;BME280;56261;51.580;4.578;2023-04-30T06:21:40;102456.75;;;10.29;100.00
69153;BME280;56261;51.580;4.578;2023-04-30T06:24:08;102447.44;;;10.23;100.00
69153;BME280;56261;51.580;4.578;2023-04-30T06:26:33;102451.72;;;10.14;100.00
69153;BME280;56261;51.580;4.578;2023-04-30T06:28:59;102453.09;;;10.41;100.00
69153;BME280;56261;51.580;4.578;2023-04-30T06:31:25;102457.28;;;11.07;100.00
69153;BME280;56261;51.580;4.578;2023-04-30T06:33:51;102450.69;;;11.41;100.00
69153;BME280;56261;51.580;4.578;2023-04-30T06:36:17;102453.56;;;11.59;100.00
69153;BME280;56261;51.580;4.578;2023-04-30T06:38:43;102454.91;;;11.13;100.00
69153;BME280;56261;51.580;4.578;2023-04-30T06:41:09;102462.03;;;11.34;100.00
69153;BME280;56261;51.580;4.578;2023-04-30T06:43:35;102462.78;;;11.96;100.00
69153;BME280;56261;51.580;4.578;2023-04-30T06:46:00;102456.78;;;12.13;100.00
69153;BME280;56261;51.580;4.578;2023-04-30T06:48:25;102462.38;;;12.49;100.00
69153;BME280;56261;51.580;4.578;2023-04-30T06:50:51;102460.72;;;12.29;100.00
69153;BME280;56261;51.580;4.578;2023-04-30T06:53:17;102467.59;;;12.12;100.00
69153;BME280;56261;51.580;4.578;2023-04-30T06:55:43;102460.13;;;12.54;100.00
69153;BME280;56261;51.580;4.578;2023-04-30T06:58:09;102467.13;;;12.84;100.00
69153;BME280;56261;51.580;4.578;2023-04-30T07:00:34;102466.88;;;12.68;100.00
69153;BME280;56261;51.580;4.578;2023-04-30T07:03:00;102463.09;;;13.18;100.00
69153;BME280;56261;51.580;4.578;2023-04-30T07:05:28;102463.41;;;13.70;100.00
69153;BME280;56261;51.580;4.578;2023-04-30T07:07:53;102454.25;;;14.26;100.00
69153;BME280;56261;51.580;4.578;2023-04-30T07:10:19;102452.72;;;14.06;100.00
69153;BME280;56261;51.580;4.578;2023-04-30T07:12:44;102467.94;;;13.04;100.00
69153;BME280;56261;51.580;4.578;2023-04-30T07:15:10;102469.72;;;12.37;100.00
69153;BME280;56261;51.580;4.578;2023-04-30T07:17:35;102462.78;;;13.21;100.00
69153;BME280;56261;51.580;4.578;2023-04-30T07:20:02;102461.25;;;14.19;100.00
69153;BME280;56261;51.580;4.578;2023-04-30T07:22:28;102459.25;;;14.21;100.00
69153;BME280;56261;51.580;4.578;2023-04-30T07:24:54;102461.06;;;14.74;100.00
69153;BME280;56261;51.580;4.578;2023-04-30T07:27:20;102452.50;;;14.17;100.00
69153;BME280;56261;51.580;4.578;2023-04-30T07:29:45;102449.22;;;14.85;100.00
69153;BME280;56261;51.580;4.578;2023-04-30T07:32:11;102439.78;;;15.15;100.00
69153;BME280;56261;51.580;4.578;2023-04-30T07:34:36;102442.72;;;14.96;100.00
69153;BME280;56261;51.580;4.578;2023-04-30T07:37:02;102450.16;;;14.76;100.00
69153;BME280;56261;51.580;4.578;2023-04-30T07:39:28;102444.66;;;15.54;100.00
69153;BME280;56261;51.580;4.578;2023-04-30T07:41:53;102452.03;;;15.44;100.00
69153;BME280;56261;51.580;4.578;2023-04-30T07:44:18;102440.81;;;15.57;100.00
69153;BME280;56261;51.580;4.578;2023-04-30T07:46:45;102450.34;;;15.43;100.00
69153;BME280;56261;51.580;4.578;2023-04-30T07:49:11;102448.00;;;15.99;100.00
69153;BME280;56261;51.580;4.578;2023-04-30T07:51:36;102445.97;;;16.91;100.00
69153;BME280;56261;51.580;4.578;2023-04-30T07:54:03;102457.53;;;17.16;100.00
69153;BME280;56261;51.580;4.578;2023-04-30T07:56:28;102453.41;;;16.73;100.00
69153;BME280;56261;51.580;4.578;2023-04-30T07:58:54;102451.00;;;16.94;100.00
69153;BME280;56261;51.580;4.578;2023-04-30T08:01:19;102445.97;;;16.91;100.00
69153;BME280;56261;51.580;4.578;2023-04-30T08:03:45;102454.06;;;16.75;100.00
69153;BME280;56261;51.580;4.578;2023-04-30T08:06:11;102450.47;;;17.55;100.00
69153;BME280;56261;51.580;4.578;2023-04-30T08:08:36;102450.59;;;17.22;100.00
69153;BME280;56261;51.580;4.578;2023-04-30T08:11:02;102439.09;;;16.56;100.00
69153;BME280;56261;51.580;4.578;2023-04-30T08:13:27;102449.69;;;16.90;100.00
69153;BME280;56261;51.580;4.578;2023-04-30T08:15:53;102448.00;;;16.73;100.00
69153;BME280;56261;51.580;4.578;2023-04-30T08:18:18;102446.38;;;17.59;100.00
69153;BME280;56261;51.580;4.578;2023-04-30T08:20:43;102446.72;;;17.95;100.00
69153;BME280;56261;51.580;4.578;2023-04-30T08:23:09;102446.22;;;18.38;100.00
69153;BME280;56261;51.580;4.578;2023-04-30T08:25:34;102444.28;;;18.09;100.00
69153;BME280;56261;51.580;4.578;2023-04-30T08:28:01;102448.94;;;18.38;100.00
69153;BME280;56261;51.580;4.578;2023-04-30T08:30:26;102458.47;;;18.02;100.00
69153;BME280;56261;51.580;4.578;2023-04-30T08:32:52;102464.22;;;17.29;100.00
69153;BME280;56261;51.580;4.578;2023-04-30T08:35:17;102459.38;;;17.16;100.00
69153;BME280;56261;51.580;4.578;2023-04-30T08:37:43;102457.94;;;16.64;100.00
69153;BME280;56261;51.580;4.578;2023-04-30T08:40:09;102448.25;;;18.13;100.00
69153;BME280;56261;51.580;4.578;2023-04-30T08:42:37;102448.28;;;17.50;100.00
69153;BME280;56261;51.580;4.578;2023-04-30T08:45:03;102440.25;;;18.04;100.00
69153;BME280;56261;51.580;4.578;2023-04-30T08:47:29;102435.53;;;18.59;100.00
69153;BME280;56261;51.580;4.578;2023-04-30T08:49:55;102443.06;;;18.11;100.00
69153;BME280;56261;51.580;4.578;2023-04-30T08:52:21;102447.72;;;17.63;100.00
69153;BME280;56261;51.580;4.578;2023-04-30T08:54:47;102441.44;;;18.02;100.00
69153;BME280;56261;51.580;4.578;2023-04-30T08:57:15;102444.13;;;18.25;100.00
69153;BME280;56261;51.580;4.578;2023-04-30T08:59:44;102449.75;;;18.76;100.00
69153;BME280;56261;51.580;4.578;2023-04-30T09:02:09;102446.66;;;18.03;100.00
69153;BME280;56261;51.580;4.578;2023-04-30T09:04:35;102436.28;;;18.91;100.00
69153;BME280;56261;51.580;4.578;2023-04-30T09:07:00;102441.41;;;19.16;100.00
69153;BME280;56261;51.580;4.578;2023-04-30T09:09:28;102444.38;;;19.06;100.00
69153;BME280;56261;51.580;4.578;2023-04-30T09:12:11;102435.91;;;20.18;100.00
69153;BME280;56261;51.580;4.578;2023-04-30T09:14:56;102432.91;;;19.85;100.00
69153;BME280;56261;51.580;4.578;2023-04-30T09:17:22;102433.59;;;19.72;100.00
69153;BME280;56261;51.580;4.578;2023-04-30T09:19:49;102443.78;;;17.82;100.00
69153;BME280;56261;51.580;4.578;2023-04-30T09:22:22;102433.94;;;18.88;100.00
69153;BME280;56261;51.580;4.578;2023-04-30T09:24:49;102439.88;;;17.76;100.00
69153;BME280;56261;51.580;4.578;2023-04-30T09:27:20;102443.63;;;18.21;100.00
69153;BME280;56261;51.580;4.578;2023-04-30T09:29:46;102436.97;;;18.32;100.00
69153;BME280;56261;51.580;4.578;2023-04-30T09:32:12;102432.34;;;19.38;100.00
69153;BME280;56261;51.580;4.578;2023-04-30T09:34:38;102437.78;;;18.94;100.00
69153;BME280;56261;51.580;4.578;2023-04-30T09:37:04;102434.78;;;18.51;100.00
69153;BME280;56261;51.580;4.578;2023-04-30T09:39:29;102435.31;;;18.08;100.00
69153;BME280;56261;51.580;4.578;2023-04-30T09:42:10;102440.41;;;18.03;100.00
69153;BME280;56261;51.580;4.578;2023-04-30T09:44:37;102433.06;;;18.35;100.00
69153;BME280;56261;51.580;4.578;2023-04-30T09:47:03;102425.19;;;19.01;100.00
69153;BME280;56261;51.580;4.578;2023-04-30T09:49:29;102429.44;;;17.73;100.00
69153;BME280;56261;51.580;4.578;2023-04-30T09:51:57;102435.41;;;17.29;100.00
69153;BME280;56261;51.580;4.578;2023-04-30T09:54:25;102433.63;;;17.84;100.00
69153;BME280;56261;51.580;4.578;2023-04-30T09:56:52;102429.44;;;18.95;100.00
69153;BME280;56261;51.580;4.578;2023-04-30T09:59:21;102421.91;;;19.20;100.00
69153;BME280;56261;51.580;4.578;2023-04-30T10:01:51;102424.19;;;18.26;100.00
69153;BME280;56261;51.580;4.578;2023-04-30T10:04:18;102422.13;;;18.66;100.00
69153;BME280;56261;51.580;4.578;2023-04-30T10:06:43;102425.41;;;17.69;100.00
69153;BME280;56261;51.580;4.578;2023-04-30T10:09:10;102425.34;;;18.32;100.00
69153;BME280;56261;51.580;4.578;2023-04-30T10:11:41;102417.31;;;18.76;100.00
69153;BME280;56261;51.580;4.578;2023-04-30T10:14:11;102418.22;;;18.68;100.00
69153;BME280;56261;51.580;4.578;2023-04-30T10:16:47;102415.34;;;18.70;100.00
69153;BME280;56261;51.580;4.578;2023-04-30T10:19:24;102410.59;;;17.96;100.00
69153;BME280;56261;51.580;4.578;2023-04-30T10:21:50;102420.41;;;17.66;100.00
69153;BME280;56261;51.580;4.578;2023-04-30T10:24:17;102424.47;;;17.22;100.00
69153;BME280;56261;51.580;4.578;2023-04-30T10:26:44;102419.59;;;18.12;100.00
69153;BME280;56261;51.580;4.578;2023-04-30T10:29:11;102411.50;;;17.57;100.00
69153;BME280;56261;51.580;4.578;2023-04-30T10:31:38;102405.44;;;18.10;100.00
69153;BME280;56261;51.580;4.578;2023-04-30T10:35:14;102412.63;;;17.94;100.00
69153;BME280;56261;51.580;4.578;2023-04-30T10:37:27;102403.72;;;17.31;100.00
69153;BME280;56261;51.580;4.578;2023-04-30T10:39:55;102405.47;;;17.16;100.00
69153;BME280;56261;51.580;4.578;2023-04-30T10:42:21;102391.84;;;17.40;100.00
69153;BME280;56261;51.580;4.578;2023-04-30T10:44:46;102394.44;;;18.11;100.00
69153;BME280;56261;51.580;4.578;2023-04-30T10:47:13;102389.94;;;17.80;100.00
69153;BME280;56261;51.580;4.578;2023-04-30T10:49:38;102390.03;;;17.95;100.00
69153;BME280;56261;51.580;4.578;2023-04-30T10:52:09;102380.28;;;18.47;100.00
69153;BME280;56261;51.580;4.578;2023-04-30T10:54:36;102382.56;;;18.73;100.00
69153;BME280;56261;51.580;4.578;2023-04-30T10:57:15;102375.09;;;17.84;100.00
69153;BME280;56261;51.580;4.578;2023-04-30T10:59:53;102365.31;;;18.21;100.00
69153;BME280;56261;51.580;4.578;2023-04-30T11:02:43;102364.81;;;18.03;100.00
69153;BME280;56261;51.580;4.578;2023-04-30T11:05:13;102368.84;;;17.84;100.00
69153;BME280;56261;51.580;4.578;2023-04-30T11:07:56;102355.66;;;17.81;100.00
69153;BME280;56261;51.580;4.578;2023-04-30T11:10:23;102358.13;;;18.14;100.00
69153;BME280;56261;51.580;4.578;2023-04-30T11:12:51;102361.44;;;18.39;100.00
69153;BME280;56261;51.580;4.578;2023-04-30T11:15:19;102358.28;;;17.97;100.00
69153;BME280;56261;51.580;4.578;2023-04-30T11:17:47;102354.84;;;18.03;100.00
69153;BME280;56261;51.580;4.578;2023-04-30T11:20:14;102353.63;;;18.59;100.00
69153;BME280;56261;51.580;4.578;2023-04-30T11:22:43;102346.19;;;18.76;100.00
69153;BME280;56261;51.580;4.578;2023-04-30T11:25:10;102345.50;;;18.29;100.00
69153;BME280;56261;51.580;4.578;2023-04-30T11:27:40;102332.09;;;18.36;100.00
69153;BME280;56261;51.580;4.578;2023-04-30T11:30:10;102341.81;;;18.60;100.00
69153;BME280;56261;51.580;4.578;2023-04-30T11:32:38;102326.78;;;18.72;100.00
69153;BME280;56261;51.580;4.578;2023-04-30T11:35:04;102325.31;;;18.55;100.00
69153;BME280;56261;51.580;4.578;2023-04-30T11:37:31;102317.59;;;18.66;100.00
69153;BME280;56261;51.580;4.578;2023-04-30T11:40:00;102319.50;;;18.73;100.00
69153;BME280;56261;51.580;4.578;2023-04-30T11:42:26;102318.50;;;19.03;100.00
69153;BME280;56261;51.580;4.578;2023-04-30T11:44:53;102307.31;;;18.77;100.00
69153;BME280;56261;51.580;4.578;2023-04-30T11:47:19;102313.94;;;18.44;100.00
69153;BME280;56261;51.580;4.578;2023-04-30T11:49:44;102300.78;;;19.01;100.00
69153;BME280;56261;51.580;4.578;2023-04-30T11:52:12;102308.00;;;18.79;100.00
69153;BME280;56261;51.580;4.578;2023-04-30T11:54:38;102301.16;;;18.23;100.00
69153;BME280;56261;51.580;4.578;2023-04-30T11:57:04;102304.75;;;17.78;100.00
69153;BME280;56261;51.580;4.578;2023-04-30T11:59:31;102297.59;;;17.93;100.00
69153;BME280;56261;51.580;4.578;2023-04-30T12:01:57;102302.63;;;18.11;100.00
69153;BME280;56261;51.580;4.578;2023-04-30T12:04:23;102300.50;;;18.66;100.00
69153;BME280;56261;51.580;4.578;2023-04-30T12:06:48;102288.59;;;18.90;100.00
69153;BME280;56261;51.580;4.578;2023-04-30T12:09:14;102290.50;;;19.11;100.00
69153;BME280;56261;51.580;4.578;2023-04-30T12:11:39;102293.22;;;19.11;100.00
69153;BME280;56261;51.580;4.578;2023-04-30T12:14:07;102277.59;;;18.92;100.00
69153;BME280;56261;51.580;4.578;2023-04-30T12:16:45;102281.81;;;19.16;100.00
69153;BME280;56261;51.580;4.578;2023-04-30T12:19:21;102273.31;;;18.67;100.00
69153;BME280;56261;51.580;4.578;2023-04-30T12:21:49;102278.63;;;18.31;100.00
69153;BME280;56261;51.580;4.578;2023-04-30T12:24:16;102274.34;;;18.37;100.00
69153;BME280;56261;51.580;4.578;2023-04-30T12:26:42;102267.91;;;18.82;100.00
69153;BME280;56261;51.580;4.578;2023-04-30T12:29:28;102277.50;;;17.73;100.00
69153;BME280;56261;51.580;4.578;2023-04-30T12:31:53;102277.13;;;18.43;100.00
69153;BME280;56261;51.580;4.578;2023-04-30T12:34:19;102272.84;;;18.34;100.00
69153;BME280;56261;51.580;4.578;2023-04-30T12:36:44;102280.28;;;18.77;100.00
69153;BME280;56261;51.580;4.578;2023-04-30T12:39:14;102265.66;;;18.86;100.00
69153;BME280;56261;51.580;4.578;2023-04-30T12:41:42;102262.50;;;18.82;100.00
69153;BME280;56261;51.580;4.578;2023-04-30T12:44:22;102261.41;;;18.47;100.00
69153;BME280;56261;51.580;4.578;2023-04-30T12:46:48;102258.88;;;18.60;100.00
69153;BME280;56261;51.580;4.578;2023-04-30T12:49:25;102249.22;;;19.24;100.00
69153;BME280;56261;51.580;4.578;2023-04-30T12:51:51;102252.34;;;18.70;100.00
69153;BME280;56261;51.580;4.578;2023-04-30T12:54:24;102255.88;;;18.25;100.00
69153;BME280;56261;51.580;4.578;2023-04-30T12:56:57;102252.72;;;18.07;100.00
69153;BME280;56261;51.580;4.578;2023-04-30T12:59:24;102246.41;;;18.44;100.00
69153;BME280;56261;51.580;4.578;2023-04-30T13:01:49;102246.84;;;18.48;100.00
69153;BME280;56261;51.580;4.578;2023-04-30T13:04:15;102239.88;;;19.05;100.00